createdAt,value
2017-11-30T00:00:01.860Z,12.47
2017-11-30T00:02:30.807Z,12.50
2017-11-30T00:05:00.045Z,11.60
2017-11-30T00:07:29.278Z,11.23
2017-11-30T00:09:58.538Z,10.87
2017-11-30T00:12:27.833Z,11.37
2017-11-30T00:14:57.091Z,10.23
2017-11-30T00:17:27.099Z,9.90
2017-11-30T00:19:56.354Z,9.60
2017-11-30T00:22:25.627Z,9.43
2017-11-30T00:24:55.049Z,9.30
2017-11-30T00:27:24.307Z,10.13
2017-11-30T00:29:53.563Z,10.40
2017-11-30T00:32:22.832Z,8.20
2017-11-30T00:34:52.071Z,9.17
2017-11-30T00:37:21.315Z,7.87
2017-11-30T00:39:50.650Z,8.53
2017-11-30T00:42:37.575Z,7.40
2017-11-30T00:45:06.915Z,6.57
2017-11-30T00:47:36.945Z,6.10
2017-11-30T00:50:06.167Z,5.27
2017-11-30T00:52:35.403Z,5.97
2017-11-30T00:55:04.670Z,5.70
2017-11-30T00:57:34.765Z,5.17
2017-11-30T01:00:04.028Z,5.87
2017-11-30T01:02:33.450Z,5.23
2017-11-30T01:05:02.743Z,4.53
2017-11-30T01:07:31.989Z,4.93
2017-11-30T01:10:01.243Z,4.33
2017-11-30T01:12:30.472Z,5.47
2017-11-30T01:14:59.707Z,5.40
2017-11-30T01:17:33.942Z,5.90
2017-11-30T01:20:03.188Z,4.80
2017-11-30T01:22:32.597Z,4.47
2017-11-30T01:25:01.833Z,5.07
2017-11-30T01:27:31.064Z,4.90
2017-11-30T01:30:00.347Z,5.70
2017-11-30T01:32:29.831Z,5.40
2017-11-30T01:34:59.084Z,5.30
2017-11-30T01:37:29.828Z,5.30
2017-11-30T01:39:59.834Z,5.23
2017-11-30T01:42:29.247Z,4.60
2017-11-30T01:44:59.286Z,5.03
2017-11-30T01:47:28.658Z,4.37
2017-11-30T01:49:58.967Z,4.30
2017-11-30T01:52:28.302Z,4.37
2017-11-30T01:54:57.585Z,4.63
2017-11-30T01:57:26.872Z,4.40
2017-11-30T01:59:56.110Z,4.97
2017-11-30T02:02:25.476Z,5.00
2017-11-30T02:04:54.796Z,5.60
2017-11-30T02:07:24.163Z,4.40
2017-11-30T02:09:53.491Z,4.77
2017-11-30T02:12:22.749Z,4.13
2017-11-30T02:14:52.057Z,5.13
2017-11-30T02:17:21.298Z,5.20
2017-11-30T02:19:50.579Z,5.43
2017-11-30T02:22:19.904Z,4.17
2017-11-30T02:24:49.964Z,4.53
2017-11-30T02:27:19.310Z,5.07
2017-11-30T02:29:48.598Z,4.80
2017-11-30T02:32:17.924Z,4.00
2017-11-30T02:34:47.994Z,4.70
2017-11-30T02:37:17.431Z,4.20
2017-11-30T02:39:47.613Z,4.93
2017-11-30T02:42:16.935Z,5.10
2017-11-30T02:44:46.272Z,5.00
2017-11-30T02:47:16.369Z,5.07
2017-11-30T02:49:45.652Z,4.60
2017-11-30T02:52:14.898Z,4.63
2017-11-30T02:54:44.169Z,5.43
2017-11-30T02:57:13.412Z,5.53
2017-11-30T02:59:43.405Z,4.73
2017-11-30T03:02:12.676Z,5.30
2017-11-30T03:04:41.915Z,4.47
2017-11-30T03:07:11.918Z,4.50
2017-11-30T03:09:41.165Z,5.10
2017-11-30T03:12:10.404Z,5.10
2017-11-30T03:14:39.667Z,5.67
2017-11-30T03:17:08.913Z,5.97
2017-11-30T03:19:38.172Z,5.40
2017-11-30T03:22:07.456Z,5.53
2017-11-30T03:24:36.781Z,6.83
2017-11-30T03:27:06.107Z,5.93
2017-11-30T03:29:35.432Z,5.63
2017-11-30T03:32:04.753Z,4.40
2017-11-30T03:34:33.974Z,5.07
2017-11-30T03:37:03.236Z,4.97
2017-11-30T03:39:32.477Z,6.10
2017-11-30T03:42:01.716Z,5.37
2017-11-30T03:44:31.012Z,5.13
2017-11-30T03:47:00.226Z,5.90
2017-11-30T03:49:29.530Z,5.53
2017-11-30T03:51:58.761Z,6.53
2017-11-30T03:54:28.227Z,6.10
2017-11-30T03:56:57.540Z,6.00
2017-11-30T03:59:26.803Z,7.27
2017-11-30T04:01:56.060Z,6.67
2017-11-30T04:04:26.067Z,5.60
2017-11-30T04:06:55.318Z,6.10
2017-11-30T04:09:24.596Z,5.80
2017-11-30T04:11:53.872Z,5.87
2017-11-30T04:14:23.901Z,6.57
2017-11-30T04:16:53.128Z,7.37
2017-11-30T04:19:22.395Z,7.60
2017-11-30T04:21:52.750Z,8.27
2017-11-30T04:24:21.999Z,10.57
2017-11-30T04:26:51.253Z,8.90
2017-11-30T04:29:20.491Z,7.47
2017-11-30T04:31:49.743Z,6.13
2017-11-30T04:34:19.015Z,6.50
2017-11-30T04:36:49.038Z,7.10
2017-11-30T04:39:18.271Z,6.17
2017-11-30T04:41:47.531Z,6.93
2017-11-30T04:44:17.537Z,6.50
2017-11-30T04:46:46.792Z,30.27
2017-11-30T04:49:16.066Z,17.60
2017-11-30T04:51:46.083Z,9.30
2017-11-30T04:54:15.355Z,9.40
2017-11-30T04:56:44.611Z,8.30
2017-11-30T04:59:14.646Z,6.93
2017-11-30T05:01:43.904Z,7.20
2017-11-30T05:04:13.167Z,7.50
2017-11-30T05:06:42.402Z,6.67
2017-11-30T05:09:12.734Z,9.00
2017-11-30T05:11:41.926Z,8.17
2017-11-30T05:14:11.172Z,8.23
2017-11-30T05:16:40.468Z,7.27
2017-11-30T05:19:09.715Z,6.90
2017-11-30T05:21:39.720Z,7.00
2017-11-30T05:24:10.467Z,7.83
2017-11-30T05:26:39.711Z,8.70
2017-11-30T05:29:09.212Z,8.23
2017-11-30T05:31:38.447Z,9.03
2017-11-30T05:34:07.686Z,8.60
2017-11-30T05:36:36.947Z,7.87
2017-11-30T05:39:06.191Z,8.13
2017-11-30T05:41:36.289Z,9.90
2017-11-30T05:44:05.620Z,7.37
2017-11-30T05:46:34.890Z,6.80
2017-11-30T05:49:04.195Z,7.13
2017-11-30T05:51:33.446Z,6.57
2017-11-30T05:54:02.682Z,6.37
2017-11-30T05:56:31.947Z,8.30
2017-11-30T05:59:01.230Z,7.07
2017-11-30T06:01:30.522Z,6.90
2017-11-30T06:04:00.634Z,7.80
2017-11-30T06:06:30.627Z,8.53
2017-11-30T06:08:59.899Z,14.50
2017-11-30T06:11:29.192Z,8.60
2017-11-30T06:13:58.440Z,7.63
2017-11-30T06:16:27.840Z,7.43
2017-11-30T06:18:57.173Z,8.07
2017-11-30T06:21:26.438Z,10.43
2017-11-30T06:23:55.762Z,9.10
2017-11-30T06:26:25.646Z,8.23
2017-11-30T06:28:54.887Z,8.60
2017-11-30T06:31:24.139Z,9.00
2017-11-30T06:33:53.376Z,8.23
2017-11-30T06:36:23.410Z,8.80
2017-11-30T06:38:52.640Z,8.67
2017-11-30T06:41:21.870Z,7.93
2017-11-30T06:43:51.250Z,7.53
2017-11-30T06:46:20.527Z,7.10
2017-11-30T06:48:49.779Z,7.97
2017-11-30T06:51:19.131Z,8.63
2017-11-30T06:53:48.377Z,9.17
2017-11-30T06:56:17.648Z,9.67
2017-11-30T06:58:46.991Z,8.37
2017-11-30T07:01:16.256Z,9.07
2017-11-30T07:03:45.616Z,8.87
2017-11-30T07:06:15.658Z,9.47
2017-11-30T07:08:44.911Z,8.60
2017-11-30T07:11:14.553Z,9.93
2017-11-30T07:13:44.550Z,9.30
2017-11-30T07:16:13.951Z,9.23
2017-11-30T07:18:43.969Z,10.00
2017-11-30T07:21:13.219Z,9.27
2017-11-30T07:23:42.551Z,9.23
2017-11-30T07:26:11.807Z,8.53
2017-11-30T07:28:41.071Z,9.07
2017-11-30T07:31:10.335Z,8.93
2017-11-30T07:33:39.623Z,8.63
2017-11-30T07:36:09.570Z,8.83
2017-11-30T07:38:38.924Z,8.80
2017-11-30T07:41:08.159Z,9.93
2017-11-30T07:43:37.418Z,7.80
2017-11-30T07:46:06.660Z,8.80
2017-11-30T07:48:35.896Z,7.47
2017-11-30T07:51:05.156Z,9.10
2017-11-30T07:53:34.399Z,9.30
2017-11-30T07:56:03.658Z,8.93
2017-11-30T07:58:32.920Z,7.97
2017-11-30T08:01:02.923Z,8.67
2017-11-30T08:03:32.176Z,9.60
2017-11-30T08:06:01.627Z,9.67
2017-11-30T08:08:31.619Z,8.17
2017-11-30T08:11:00.850Z,9.70
2017-11-30T08:13:30.883Z,10.27
2017-11-30T08:16:00.255Z,8.23
2017-11-30T08:18:29.513Z,8.10
2017-11-30T08:20:58.869Z,8.90
2017-11-30T08:23:28.891Z,8.90
2017-11-30T08:25:58.127Z,7.83
2017-11-30T08:28:27.395Z,7.80
2017-11-30T08:30:57.415Z,8.70
2017-11-30T08:33:26.680Z,7.93
2017-11-30T08:35:56.079Z,9.30
2017-11-30T08:38:25.352Z,8.10
2017-11-30T08:40:54.726Z,7.77
2017-11-30T08:43:24.828Z,8.30
2017-11-30T08:45:54.096Z,7.80
2017-11-30T08:48:23.440Z,10.73
2017-11-30T08:50:53.468Z,9.67
2017-11-30T08:53:22.687Z,11.73
2017-11-30T08:55:52.144Z,10.70
2017-11-30T08:58:21.461Z,9.70
2017-11-30T09:00:51.484Z,9.43
2017-11-30T09:03:20.877Z,8.80
2017-11-30T09:05:50.187Z,9.90
2017-11-30T09:08:20.202Z,10.47
2017-11-30T09:10:49.494Z,11.40
2017-11-30T09:13:18.783Z,11.23
2017-11-30T09:15:48.204Z,11.70
2017-11-30T09:18:18.507Z,10.37
2017-11-30T09:20:47.759Z,10.57
2017-11-30T09:23:17.023Z,11.17
2017-11-30T09:25:46.287Z,11.43
2017-11-30T09:28:15.631Z,10.33
2017-11-30T09:30:44.901Z,10.23
2017-11-30T09:33:14.145Z,8.60
2017-11-30T09:35:44.146Z,10.30
2017-11-30T09:38:13.439Z,10.37
2017-11-30T09:40:43.340Z,10.03
2017-11-30T09:43:12.691Z,10.67
2017-11-30T09:45:41.924Z,11.50
2017-11-30T09:48:11.211Z,11.87
2017-11-30T09:50:40.450Z,10.63
2017-11-30T09:53:09.724Z,11.33
2017-11-30T09:55:38.987Z,10.77
2017-11-30T09:58:08.371Z,10.97
2017-11-30T10:00:37.695Z,10.03
2017-11-30T10:03:07.074Z,10.87
2017-11-30T10:05:36.524Z,9.87
2017-11-30T10:08:06.044Z,11.70
2017-11-30T10:10:35.287Z,10.27
2017-11-30T10:13:04.537Z,8.93
2017-11-30T10:15:33.815Z,11.47
2017-11-30T10:18:03.190Z,11.07
2017-11-30T10:20:32.531Z,12.57
2017-11-30T10:23:01.776Z,10.57
2017-11-30T10:25:31.046Z,11.33
2017-11-30T10:28:00.275Z,9.90
2017-11-30T10:30:29.554Z,10.40
2017-11-30T10:32:58.812Z,11.33
2017-11-30T10:35:28.928Z,10.83
2017-11-30T10:37:58.955Z,11.43
2017-11-30T10:40:28.355Z,10.80
2017-11-30T10:42:58.404Z,11.27
2017-11-30T10:45:27.698Z,10.50
2017-11-30T10:47:57.031Z,11.83
2017-11-30T10:50:26.299Z,11.50
2017-11-30T10:52:55.657Z,10.83
2017-11-30T10:55:24.944Z,10.33
2017-11-30T10:57:54.263Z,11.50
2017-11-30T11:00:23.519Z,11.87
2017-11-30T11:02:52.821Z,12.47
2017-11-30T11:05:22.046Z,11.03
2017-11-30T11:07:51.296Z,12.17
2017-11-30T11:10:20.614Z,11.43
2017-11-30T11:12:49.963Z,12.80
2017-11-30T11:15:20.828Z,9.73
2017-11-30T11:17:50.842Z,11.17
2017-11-30T11:20:20.080Z,11.63
2017-11-30T11:22:49.335Z,13.70
2017-11-30T11:25:18.614Z,12.43
2017-11-30T11:27:47.977Z,12.40
2017-11-30T11:30:18.087Z,11.03
2017-11-30T11:32:47.360Z,10.87
2017-11-30T11:35:16.611Z,11.70
2017-11-30T11:37:45.852Z,9.37
2017-11-30T11:40:15.103Z,9.80
2017-11-30T11:42:45.123Z,10.60
2017-11-30T11:45:14.397Z,8.20
2017-11-30T11:47:43.640Z,8.47
2017-11-30T11:50:12.911Z,9.90
2017-11-30T11:52:42.215Z,9.10
2017-11-30T11:55:11.452Z,9.80
2017-11-30T11:57:40.950Z,8.77
2017-11-30T12:00:10.493Z,9.33
2017-11-30T12:02:39.703Z,8.57
2017-11-30T12:05:08.964Z,10.50
2017-11-30T12:07:38.201Z,8.70
2017-11-30T12:10:07.464Z,10.60
2017-11-30T12:12:36.778Z,10.10
2017-11-30T12:15:06.039Z,9.43
2017-11-30T12:17:35.421Z,10.93
2017-11-30T12:20:04.697Z,8.90
2017-11-30T12:22:35.511Z,8.70
2017-11-30T12:25:04.764Z,7.73
2017-11-30T12:27:34.002Z,9.80
2017-11-30T12:30:03.318Z,8.50
2017-11-30T12:32:32.576Z,8.20
2017-11-30T12:35:01.844Z,7.93
2017-11-30T12:37:31.095Z,8.40
2017-11-30T12:40:00.371Z,7.17
2017-11-30T12:42:29.823Z,7.70
2017-11-30T12:44:59.070Z,8.40
2017-11-30T12:47:28.497Z,10.07
2017-11-30T12:49:57.755Z,7.93
2017-11-30T12:52:27.054Z,9.17
2017-11-30T12:54:57.083Z,8.30
2017-11-30T12:57:26.371Z,9.50
2017-11-30T12:59:56.411Z,7.90
2017-11-30T13:02:25.682Z,7.20
2017-11-30T13:04:54.958Z,8.20
2017-11-30T13:07:24.242Z,9.60
2017-11-30T13:09:53.495Z,8.00
2017-11-30T13:12:22.743Z,8.87
2017-11-30T13:14:51.978Z,7.23
2017-11-30T13:17:21.283Z,9.90
2017-11-30T13:19:50.521Z,7.80
2017-11-30T13:22:19.749Z,9.43
2017-11-30T13:24:49.036Z,8.60
2017-11-30T13:27:18.285Z,8.50
2017-11-30T13:29:47.525Z,7.60
2017-11-30T13:32:16.787Z,8.30
2017-11-30T13:34:46.056Z,7.70
2017-11-30T13:37:15.312Z,7.90
2017-11-30T13:39:44.577Z,8.07
2017-11-30T13:42:13.837Z,10.47
2017-11-30T13:44:43.879Z,9.83
2017-11-30T13:47:13.402Z,9.53
2017-11-30T13:49:42.656Z,8.50
2017-11-30T13:52:12.902Z,8.30
2017-11-30T13:54:42.150Z,8.53
2017-11-30T13:57:12.345Z,8.60
2017-11-30T13:59:41.594Z,9.77
2017-11-30T14:02:12.581Z,8.67
2017-11-30T14:04:41.919Z,8.70
2017-11-30T14:07:11.171Z,9.77
2017-11-30T14:09:40.441Z,8.90
2017-11-30T14:12:09.733Z,9.13
2017-11-30T14:14:39.090Z,9.50
2017-11-30T14:17:08.329Z,9.70
2017-11-30T14:19:37.602Z,8.40
2017-11-30T14:22:06.875Z,10.67
2017-11-30T14:24:36.877Z,8.17
2017-11-30T14:27:06.165Z,8.27
2017-11-30T14:29:35.411Z,7.77
2017-11-30T14:32:04.709Z,8.50
2017-11-30T14:34:33.972Z,8.03
2017-11-30T14:37:03.229Z,8.23
2017-11-30T14:39:32.893Z,9.83
2017-11-30T14:42:02.175Z,10.73
2017-11-30T14:44:32.917Z,17.20
2017-11-30T14:47:02.181Z,18.07
2017-11-30T14:49:31.412Z,12.90
2017-11-30T14:52:00.741Z,9.10
2017-11-30T14:54:30.041Z,8.40
2017-11-30T14:57:00.067Z,9.50
2017-11-30T14:59:29.330Z,8.60
2017-11-30T15:01:58.568Z,9.90
2017-11-30T15:04:28.679Z,10.33
2017-11-30T15:06:58.670Z,8.53
2017-11-30T15:09:28.069Z,9.63
2017-11-30T15:11:57.325Z,9.07
2017-11-30T15:14:26.567Z,8.07
2017-11-30T15:16:55.838Z,6.87
2017-11-30T15:19:25.073Z,8.60
2017-11-30T15:21:54.343Z,7.30
2017-11-30T15:24:23.694Z,7.83
2017-11-30T15:26:53.653Z,7.50
2017-11-30T15:29:22.902Z,7.50
2017-11-30T15:31:52.182Z,6.73
2017-11-30T15:34:21.438Z,8.43
2017-11-30T15:36:50.856Z,9.73
2017-11-30T15:39:20.119Z,7.80
2017-11-30T15:41:49.376Z,7.40
2017-11-30T15:44:18.637Z,8.73
2017-11-30T15:46:48.658Z,8.53
2017-11-30T15:49:17.979Z,8.50
2017-11-30T15:51:47.378Z,6.97
2017-11-30T15:54:17.505Z,8.80
2017-11-30T15:56:47.536Z,8.73
2017-11-30T15:59:16.925Z,7.40
2017-11-30T16:01:47.050Z,7.30
2017-11-30T16:04:17.182Z,7.83
2017-11-30T16:06:46.479Z,8.13
2017-11-30T16:09:15.762Z,8.43
2017-11-30T16:11:45.882Z,9.07
2017-11-30T16:14:16.006Z,9.20
2017-11-30T16:16:46.010Z,6.90
2017-11-30T16:19:15.452Z,7.40
2017-11-30T16:21:45.438Z,7.70
2017-11-30T16:24:14.696Z,7.47
2017-11-30T16:26:43.956Z,6.40
2017-11-30T16:29:14.062Z,8.13
2017-11-30T16:31:44.090Z,8.23
2017-11-30T16:34:13.358Z,8.87
2017-11-30T16:36:42.789Z,8.27
2017-11-30T16:39:12.803Z,7.20
2017-11-30T16:41:43.613Z,7.47
2017-11-30T16:44:12.866Z,7.90
2017-11-30T16:46:42.754Z,7.27
2017-11-30T16:49:12.181Z,8.50
2017-11-30T16:51:42.281Z,8.23
2017-11-30T16:54:12.286Z,7.77
2017-11-30T16:56:41.666Z,6.97
2017-11-30T16:59:10.993Z,7.00
2017-11-30T17:01:40.329Z,7.83
2017-11-30T17:04:10.558Z,7.50
2017-11-30T17:06:39.821Z,7.57
2017-11-30T17:09:09.066Z,7.70
2017-11-30T17:11:38.373Z,14.80
2017-11-30T17:14:07.641Z,11.67
2017-11-30T17:16:36.876Z,7.83
2017-11-30T17:19:06.913Z,7.13
2017-11-30T17:21:36.167Z,8.30
2017-11-30T17:24:05.418Z,7.67
2017-11-30T17:26:34.704Z,7.70
2017-11-30T17:29:03.969Z,7.10
2017-11-30T17:31:33.202Z,4.63
2017-11-30T17:34:02.434Z,5.03
2017-11-30T17:36:31.692Z,4.80
2017-11-30T17:39:01.715Z,3.00
2017-11-30T17:41:30.956Z,3.33
2017-11-30T17:44:00.169Z,2.33
2017-11-30T17:46:29.449Z,3.17
2017-11-30T17:48:58.836Z,4.47
2017-11-30T17:51:29.080Z,3.90
2017-11-30T17:53:58.275Z,3.50
2017-11-30T17:56:27.865Z,3.20
2017-11-30T17:58:57.886Z,4.13
2017-11-30T18:01:28.003Z,2.70
2017-11-30T18:03:57.254Z,2.90
2017-11-30T18:06:26.525Z,4.10
2017-11-30T18:08:55.802Z,3.30
2017-11-30T18:11:25.035Z,2.60
2017-11-30T18:13:54.706Z,3.40
2017-11-30T18:16:23.950Z,2.60
2017-11-30T18:18:53.205Z,3.20
2017-11-30T18:21:22.537Z,3.03
2017-11-30T18:23:53.362Z,4.10
2017-11-30T18:26:23.478Z,3.90
2017-11-30T18:28:53.509Z,2.40
2017-11-30T18:31:22.774Z,2.20
2017-11-30T18:33:52.018Z,2.53
2017-11-30T18:36:21.267Z,2.53
2017-11-30T18:38:50.508Z,2.77
2017-11-30T18:41:20.567Z,2.20
2017-11-30T18:43:49.877Z,2.10
2017-11-30T18:46:19.128Z,2.50
2017-11-30T18:48:48.383Z,2.30
2017-11-30T18:51:17.737Z,3.10
2017-11-30T18:53:47.007Z,3.17
2017-11-30T18:56:17.026Z,3.70
2017-11-30T18:58:46.322Z,2.77
2017-11-30T19:01:15.563Z,2.50
2017-11-30T19:03:44.785Z,2.77
2017-11-30T19:06:14.036Z,2.80
2017-11-30T19:08:43.291Z,2.60
2017-11-30T19:11:12.543Z,3.67
2017-11-30T19:13:41.887Z,5.77
2017-11-30T19:16:11.158Z,4.27
2017-11-30T19:18:40.417Z,7.50
2017-11-30T19:21:10.473Z,7.50
2017-11-30T19:23:39.722Z,5.80
2017-11-30T19:26:09.176Z,14.30
2017-11-30T19:28:38.434Z,7.67
2017-11-30T19:31:07.724Z,8.00
2017-11-30T19:33:36.991Z,5.80
2017-11-30T19:36:06.258Z,5.93
2017-11-30T19:38:35.498Z,6.70
2017-11-30T19:41:04.769Z,6.10
2017-11-30T19:43:34.794Z,5.83
2017-11-30T19:46:04.049Z,5.70
2017-11-30T19:48:33.330Z,4.60
2017-11-30T19:51:02.588Z,5.50
2017-11-30T19:53:32.577Z,6.60
2017-11-30T19:56:01.864Z,4.90
2017-11-30T19:58:31.146Z,5.03
2017-11-30T20:01:01.129Z,5.33
2017-11-30T20:03:30.365Z,5.47
2017-11-30T20:05:59.810Z,4.77
2017-11-30T20:08:29.066Z,5.53
2017-11-30T20:10:58.342Z,4.97
2017-11-30T20:13:27.603Z,5.27
2017-11-30T20:15:56.943Z,4.30
2017-11-30T20:18:26.975Z,5.33
2017-11-30T20:20:56.229Z,4.60
2017-11-30T20:23:25.457Z,5.30
2017-11-30T20:25:55.588Z,5.70
2017-11-30T20:28:24.894Z,5.30
2017-11-30T20:30:54.915Z,5.00
2017-11-30T20:33:24.402Z,5.40
2017-11-30T20:35:53.821Z,4.70
2017-11-30T20:38:23.817Z,5.40
2017-11-30T20:40:53.832Z,5.63
2017-11-30T20:43:23.068Z,5.10
2017-11-30T20:45:52.333Z,5.80
2017-11-30T20:48:21.615Z,5.20
2017-11-30T20:50:50.961Z,5.93
2017-11-30T20:53:20.226Z,5.57
2017-11-30T20:55:49.637Z,5.30
2017-11-30T20:58:18.913Z,4.97
2017-11-30T21:00:48.167Z,4.03
2017-11-30T21:03:17.422Z,5.47
2017-11-30T21:05:46.771Z,4.80
2017-11-30T21:08:15.992Z,4.83
2017-11-30T21:10:45.282Z,6.00
2017-11-30T21:13:14.570Z,4.40
2017-11-30T21:15:44.690Z,5.20
2017-11-30T21:18:14.790Z,5.17
2017-11-30T21:20:44.110Z,5.70
2017-11-30T21:23:14.151Z,5.17
2017-11-30T21:25:43.413Z,5.17
2017-11-30T21:28:12.693Z,5.43
2017-11-30T21:30:41.961Z,4.80
2017-11-30T21:33:11.433Z,5.03
2017-11-30T21:35:40.711Z,5.50
2017-11-30T21:38:09.941Z,6.27
2017-11-30T21:40:39.195Z,5.37
2017-11-30T21:43:09.186Z,5.37
2017-11-30T21:45:38.469Z,6.07
2017-11-30T21:48:07.778Z,5.07
2017-11-30T21:50:38.531Z,5.00
2017-11-30T21:53:07.934Z,5.40
2017-11-30T21:55:37.157Z,5.53
2017-11-30T21:58:06.415Z,4.40
2017-11-30T22:00:35.665Z,6.07
2017-11-30T22:03:04.935Z,5.57
2017-11-30T22:05:34.172Z,6.23
2017-11-30T22:08:03.414Z,5.53
2017-11-30T22:10:32.662Z,6.27
2017-11-30T22:13:01.900Z,4.80
2017-11-30T22:15:31.914Z,5.47
2017-11-30T22:18:01.157Z,5.43
2017-11-30T22:20:30.413Z,5.93
2017-11-30T22:22:59.649Z,5.50
2017-11-30T22:25:28.910Z,6.10
2017-11-30T22:27:58.149Z,6.33
2017-11-30T22:30:27.615Z,6.10
2017-11-30T22:32:56.926Z,5.70
2017-11-30T22:35:27.220Z,5.77
2017-11-30T22:37:56.813Z,5.90
2017-11-30T22:40:26.962Z,6.30
2017-11-30T22:42:56.198Z,6.53
2017-11-30T22:45:25.473Z,7.70
2017-11-30T22:47:55.658Z,6.77
2017-11-30T22:50:24.922Z,6.57
2017-11-30T22:52:54.261Z,7.67
2017-11-30T22:55:23.515Z,7.90
2017-11-30T22:57:53.529Z,6.53
2017-11-30T23:00:22.919Z,7.10
2017-11-30T23:02:52.203Z,7.17
2017-11-30T23:05:21.455Z,6.10
2017-11-30T23:07:50.698Z,6.10
2017-11-30T23:10:19.961Z,7.50
2017-11-30T23:12:49.369Z,7.27
2017-11-30T23:15:18.604Z,6.60
2017-11-30T23:17:48.709Z,7.30
2017-11-30T23:20:18.105Z,7.20
2017-11-30T23:22:47.469Z,8.47
2017-11-30T23:25:16.755Z,7.23
2017-11-30T23:27:45.981Z,6.33
2017-11-30T23:30:15.238Z,7.23
2017-11-30T23:32:44.484Z,8.10
2017-11-30T23:35:13.951Z,8.47
2017-11-30T23:37:43.189Z,7.10
2017-11-30T23:40:12.438Z,7.67
2017-11-30T23:42:41.706Z,7.10
2017-11-30T23:45:10.953Z,6.20
2017-11-30T23:47:40.206Z,7.00
2017-11-30T23:50:09.454Z,8.80
2017-11-30T23:52:39.451Z,8.40
2017-11-30T23:55:08.778Z,7.30
2017-11-30T23:57:38.073Z,8.07
